Time;durP1;ratioP1;P1;durP2;ratioP2;P2;SDS_P1;SDS_P2;PMS_P1;PMS_P2;Temp;Humidity;BMP_temperature;BMP_pressure;BME280_temperature;BME280_humidity;BME280_pressure;Samples;Min_cycle;Max_cycle;Signal;HPM_P1;HPM_P2
2021/07/25 00:01:45;;;;;;;16.45;14.93;;;;;;;20.57;81.61;95100.81;5015976;28;20253;-84
2021/07/25 00:04:12;;;;;;;4.60;3.30;;;;;;;20.34;83.23;95094.84;5016023;28;20233;-86
2021/07/25 00:06:40;;;;;;;3.55;3.25;;;;;;;20.41;82.37;95097.25;5016010;28;20551;-84
2021/07/25 00:09:07;;;;;;;3.63;2.92;;;;;;;20.47;81.36;95104.13;5015827;28;20205;-85
2021/07/25 00:11:33;;;;;;;5.18;3.25;;;;;;;20.46;82.16;95093.91;5015908;28;20199;-84
2021/07/25 00:17:10;;;;;;;2.60;2.40;;;;;;;20.61;81.19;95086.94;5014243;28;20559;-84
2021/07/25 00:20:01;;;;;;;6.50;3.15;;;;;;;20.65;81.77;95092.47;5015713;28;20349;-84
2021/07/25 00:22:29;;;;;;;6.53;3.10;;;;;;;20.75;80.85;95094.38;5016250;28;20219;-83
2021/07/25 00:25:14;;;;;;;3.63;2.97;;;;;;;20.84;80.57;95104.13;5015278;28;20218;-84
2021/07/25 00:28:04;;;;;;;5.43;4.20;;;;;;;20.89;79.71;95106.78;5015390;28;20637;-84
2021/07/25 00:30:37;;;;;;;6.43;4.85;;;;;;;20.92;78.82;95106.28;5030553;28;20225;-85
2021/07/25 00:33:07;;;;;;;6.72;5.70;;;;;;;20.51;82.48;95096.56;5035288;28;20222;-84
2021/07/25 00:35:36;;;;;;;5.15;4.30;;;;;;;20.38;83.43;95116.09;5035089;28;20201;-85
2021/07/25 00:38:11;;;;;;;4.57;3.75;;;;;;;20.48;82.06;95129.25;5034809;28;20201;-85
2021/07/25 00:40:57;;;;;;;5.15;3.50;;;;;;;20.59;81.09;95136.13;5034660;28;20210;-85
2021/07/25 00:43:28;;;;;;;5.53;3.47;;;;;;;20.58;80.45;95110.22;5034816;28;20230;-84
2021/07/25 00:45:56;;;;;;;4.50;3.20;;;;;;;20.61;80.60;95113.13;5034585;28;20233;-85
2021/07/25 00:48:25;;;;;;;4.65;3.33;;;;;;;20.52;82.22;95096.31;5034802;28;20208;-84
2021/07/25 00:50:52;;;;;;;4.13;3.22;;;;;;;20.54;82.09;95089.00;5031589;28;20202;-84
2021/07/25 00:53:25;;;;;;;4.55;3.15;;;;;;;20.66;81.52;95073.91;5031937;28;20230;-84
2021/07/25 00:55:56;;;;;;;5.10;3.17;;;;;;;20.66;82.51;95065.28;5032334;28;20206;-84
2021/07/25 00:58:37;;;;;;;3.97;3.20;;;;;;;20.60;82.45;95064.44;5032209;28;20281;-85
2021/07/25 01:01:08;;;;;;;5.07;3.00;;;;;;;20.54;83.19;95069.91;5031997;28;20206;-84
2021/07/25 01:04:09;;;;;;;5.95;2.90;;;;;;;20.60;83.00;95066.28;5032073;28;20261;-83
2021/07/25 01:06:47;;;;;;;4.25;3.22;;;;;;;20.52;83.18;95041.38;5032568;28;20202;-85
2021/07/25 01:09:22;;;;;;;4.38;3.33;;;;;;;20.47;83.87;95046.59;5032558;28;20206;-84
2021/07/25 01:11:56;;;;;;;6.47;3.30;;;;;;;20.57;83.51;95069.41;5032294;28;20205;-84
2021/07/25 01:14:29;;;;;;;4.30;3.40;;;;;;;20.64;83.13;95078.59;5032659;28;20236;-84
2021/07/25 01:17:27;;;;;;;4.25;3.25;;;;;;;20.73;83.24;95067.69;5032632;28;20453;-84
2021/07/25 01:19:59;;;;;;;5.53;3.13;;;;;;;20.79;82.63;95074.50;5032623;28;20279;-84
2021/07/25 01:22:30;;;;;;;4.53;3.15;;;;;;;20.86;82.10;95069.84;5031782;28;20226;-84
2021/07/25 01:24:57;;;;;;;4.47;3.33;;;;;;;20.88;82.42;95065.16;5032078;28;20229;-84
2021/07/25 01:27:43;;;;;;;3.85;3.35;;;;;;;20.92;82.37;95069.63;5032553;28;20202;-84
2021/07/25 01:30:15;;;;;;;3.30;2.85;;;;;;;20.94;82.78;95051.06;5020100;28;20198;-84
2021/07/25 01:32:43;;;;;;;3.42;3.05;;;;;;;20.98;83.26;95037.19;5013282;28;20219;-83
2021/07/25 01:35:18;;;;;;;5.05;3.03;;;;;;;21.03;83.38;95039.06;5013310;28;20194;-85
2021/07/25 01:37:47;;;;;;;4.78;3.10;;;;;;;20.99;82.67;95046.63;5013366;28;20213;-85
2021/07/25 01:40:22;;;;;;;6.78;3.35;;;;;;;20.93;83.89;95039.00;5012815;28;20424;-86
2021/07/25 01:42:52;;;;;;;4.93;3.03;;;;;;;20.84;84.17;95043.13;5012244;28;20593;-85
2021/07/25 01:45:19;;;;;;;3.90;3.45;;;;;;;20.88;84.38;95029.31;5012882;28;20237;-84
2021/07/25 01:47:46;;;;;;;3.88;3.20;;;;;;;20.90;84.49;95029.84;5013418;28;20195;-85
2021/07/25 01:50:15;;;;;;;3.90;3.20;;;;;;;20.93;83.46;95041.63;5021594;28;20201;-85
2021/07/25 01:52:44;;;;;;;3.47;2.88;;;;;;;20.93;83.08;95041.63;5032774;28;20440;-84
2021/07/25 01:55:14;;;;;;;7.10;3.40;;;;;;;20.93;82.86;95052.09;5032184;28;20205;-86
2021/07/25 01:57:41;;;;;;;4.63;3.45;;;;;;;20.87;82.97;95059.13;5032365;28;20256;-84
2021/07/25 02:00:11;;;;;;;4.60;3.42;;;;;;;20.84;81.94;95074.53;5032639;28;20550;-84
2021/07/25 02:02:38;;;;;;;5.00;3.67;;;;;;;20.75;82.67;95069.00;5032105;28;20224;-84
2021/07/25 02:05:09;;;;;;;4.93;3.45;;;;;;;20.76;82.82;95062.75;5032342;28;20248;-85
2021/07/25 02:07:37;;;;;;;4.88;3.35;;;;;;;20.83;82.82;95062.50;5032769;28;20194;-84
2021/07/25 02:10:06;;;;;;;4.72;3.30;;;;;;;20.85;82.93;95061.22;5032505;28;20198;-84
2021/07/25 02:12:33;;;;;;;4.72;3.42;;;;;;;20.81;83.91;95067.97;5031906;28;20214;-84
2021/07/25 02:14:59;;;;;;;6.75;3.58;;;;;;;20.82;83.45;95059.09;5032923;28;20195;-85
2021/07/25 02:20:12;;;;;;;4.93;3.90;;;;;;;20.58;86.44;95045.63;5030927;28;20216;-84
2021/07/25 02:22:46;;;;;;;5.13;3.80;;;;;;;20.66;86.25;95044.34;5032571;28;20218;-84
2021/07/25 02:25:22;;;;;;;5.00;3.75;;;;;;;20.71;86.19;95059.28;5032990;28;20227;-85
2021/07/25 02:28:09;;;;;;;6.25;3.50;;;;;;;20.71;85.47;95075.00;5033384;28;20268;-84
2021/07/25 02:30:39;;;;;;;6.75;3.90;;;;;;;20.70;85.11;95089.91;5011753;28;20199;-85
2021/07/25 02:33:07;;;;;;;5.25;3.83;;;;;;;20.71;84.77;95095.94;5014662;28;20243;-85
2021/07/25 02:35:36;;;;;;;4.95;3.22;;;;;;;20.71;84.44;95098.53;5015790;28;20221;-86
2021/07/25 02:38:08;;;;;;;5.28;3.58;;;;;;;20.65;85.40;95103.72;5015551;28;20241;-85
2021/07/25 02:40:37;;;;;;;5.35;3.97;;;;;;;20.65;85.34;95110.78;5015225;28;20206;-84
2021/07/25 02:43:04;;;;;;;5.63;3.70;;;;;;;20.61;86.65;95112.31;5015363;28;20219;-85
2021/07/25 02:45:30;;;;;;;5.55;3.42;;;;;;;20.60;87.58;95100.28;5014863;28;20253;-84
2021/07/25 02:47:58;;;;;;;6.43;3.67;;;;;;;20.63;87.94;95099.78;5014887;28;20209;-84
2021/07/25 02:50:24;;;;;;;5.05;3.88;;;;;;;20.60;87.33;95118.59;5014382;28;20203;-85
2021/07/25 02:52:55;;;;;;;4.47;3.80;;;;;;;20.59;87.01;95123.03;5015223;28;20230;-84
2021/07/25 02:55:24;;;;;;;4.45;3.35;;;;;;;20.64;85.90;95127.53;5014816;28;20659;-84
2021/07/25 02:57:53;;;;;;;4.50;3.60;;;;;;;20.65;85.33;95129.09;5013692;28;20249;-84
2021/07/25 03:03:03;;;;;;;5.78;3.70;;;;;;;20.62;85.08;95137.44;5003768;28;20223;-85
2021/07/25 03:05:33;;;;;;;6.20;3.90;;;;;;;20.56;85.61;95131.41;5014012;28;20321;-85
2021/07/25 03:08:03;;;;;;;6.60;3.50;;;;;;;20.48;87.27;95120.59;5014080;28;20210;-84
2021/07/25 03:10:32;;;;;;;3.78;3.30;;;;;;;20.46;86.91;95122.66;5013813;28;20199;-85
2021/07/25 03:13:00;;;;;;;3.97;3.47;;;;;;;20.39;85.69;95125.50;5013834;28;20593;-84
2021/07/25 03:15:27;;;;;;;4.97;3.42;;;;;;;20.45;84.63;95118.47;5014401;28;20197;-85
2021/07/25 03:17:56;;;;;;;7.45;3.47;;;;;;;20.47;84.18;95127.66;5014133;28;20907;-86
2021/07/25 03:23:35;;;;;;;4.32;3.20;;;;;;;20.44;83.70;95122.13;5013682;28;20226;-85
2021/07/25 03:26:05;;;;;;;6.90;3.58;;;;;;;20.47;82.99;95113.78;5008830;28;20222;-84
2021/07/25 03:28:53;;;;;;;5.95;3.47;;;;;;;20.45;84.96;95102.78;5018342;28;20297;-84
2021/07/25 03:31:45;;;;;;;5.53;3.42;;;;;;;20.33;87.48;95093.25;5005940;28;20195;-85
2021/07/25 03:34:29;;;;;;;7.93;3.75;;;;;;;20.28;86.88;95095.84;5015577;28;20225;-85
2021/07/25 03:36:56;;;;;;;6.05;3.47;;;;;;;20.28;86.00;95110.72;5018110;28;20206;-84
2021/07/25 03:39:26;;;;;;;10.27;3.90;;;;;;;20.30;85.11;95106.84;5018533;28;20290;-85
2021/07/25 03:41:54;;;;;;;4.63;3.55;;;;;;;20.28;85.37;95102.88;5017840;28;20217;-85
2021/07/25 03:44:21;;;;;;;6.72;4.25;;;;;;;20.30;83.95;95113.88;5018496;28;20227;-85
2021/07/25 03:46:48;;;;;;;6.80;3.25;;;;;;;20.34;83.80;95122.81;5017733;28;20709;-85
2021/07/25 03:49:15;;;;;;;7.10;3.42;;;;;;;20.29;84.63;95134.00;5018224;28;20213;-86
2021/07/25 03:51:41;;;;;;;7.15;3.38;;;;;;;20.31;84.11;95139.00;5017253;28;20214;-86
2021/07/25 03:54:08;;;;;;;6.60;3.47;;;;;;;20.31;83.58;95133.78;5017052;28;20621;-86
2021/07/25 03:56:35;;;;;;;5.00;3.10;;;;;;;20.29;83.24;95138.44;5017491;28;20210;-83
2021/07/25 03:59:03;;;;;;;3.78;3.38;;;;;;;20.29;83.28;95147.09;5017300;28;20199;-85
2021/07/25 04:01:30;;;;;;;5.80;3.85;;;;;;;20.28;83.29;95157.78;5017174;28;20213;-85
2021/07/25 04:03:57;;;;;;;8.55;3.42;;;;;;;20.31;83.69;95159.91;5017329;28;20226;-85
2021/07/25 04:06:23;;;;;;;5.03;3.78;;;;;;;20.18;84.57;95166.34;5016866;28;20222;-84
2021/07/25 04:08:50;;;;;;;6.82;3.88;;;;;;;20.18;84.33;95160.31;5017491;28;20214;-86
2021/07/25 04:11:17;;;;;;;8.80;3.95;;;;;;;20.28;84.16;95155.97;5016735;28;20209;-86
2021/07/25 04:13:44;;;;;;;5.55;3.60;;;;;;;20.22;84.05;95172.63;5017202;28;20226;-84
2021/07/25 04:16:12;;;;;;;5.18;3.50;;;;;;;20.10;85.32;95179.84;5017492;28;20617;-84
2021/07/25 04:18:39;;;;;;;6.60;3.80;;;;;;;20.29;88.12;95169.81;5017569;28;20203;-84
2021/07/25 04:21:05;;;;;;;4.95;3.05;;;;;;;20.62;86.58;95177.47;5019149;28;20207;-86
2021/07/25 04:23:32;;;;;;;8.77;3.00;;;;;;;20.93;84.14;95173.28;5019501;28;20262;-86
2021/07/25 04:26:02;;;;;;;10.77;3.72;;;;;;;21.15;81.98;95172.38;5018437;28;20222;-86
2021/07/25 04:28:29;;;;;;;5.82;3.20;;;;;;;21.30;80.14;95167.25;5018372;28;20195;-87
2021/07/25 04:30:56;;;;;;;7.07;3.30;;;;;;;21.43;79.18;95168.63;5036342;28;20194;-86
2021/07/25 04:33:24;;;;;;;4.15;3.30;;;;;;;21.45;78.90;95158.69;5037963;28;20232;-86
2021/07/25 04:35:53;;;;;;;3.45;3.17;;;;;;;21.45;78.94;95159.47;5027660;28;20218;-87
2021/07/25 04:38:20;;;;;;;4.72;3.50;;;;;;;21.53;78.39;95150.38;5017099;28;20206;-85
2021/07/25 04:40:56;;;;;;;7.93;3.40;;;;;;;21.55;78.11;95133.31;5016124;28;20721;-83
2021/07/25 04:43:25;;;;;;;3.72;3.42;;;;;;;21.54;78.27;95118.66;5016524;28;20215;-85
2021/07/25 04:45:58;;;;;;;4.80;3.45;;;;;;;21.25;80.83;95133.19;5018810;28;21360;-85
2021/07/25 04:48:33;;;;;;;4.88;3.53;;;;;;;21.18;80.02;95145.66;5028464;28;20209;-84
2021/07/25 04:51:05;;;;;;;5.82;3.80;;;;;;;21.22;79.89;95149.41;5017319;28;20206;-84
2021/07/25 04:53:38;;;;;;;4.72;3.53;;;;;;;21.10;81.78;95149.56;5033938;28;20234;-84
2021/07/25 04:56:05;;;;;;;4.70;3.60;;;;;;;21.25;80.26;95154.91;5037623;28;20225;-86
2021/07/25 05:01:32;;;;;;;5.93;3.50;;;;;;;21.49;79.13;95147.47;5026001;28;20257;-86
2021/07/25 05:17:36;;;;;;;5.22;3.63;;;;;;;21.58;78.63;95130.19;4944696;29;20336;-88
2021/07/25 05:20:06;;;;;;;5.03;3.40;;;;;;;21.76;78.22;95138.63;4949529;29;20219;-86
2021/07/25 05:22:43;;;;;;;3.92;3.53;;;;;;;21.85;77.77;95137.91;4967765;28;20910;-86
2021/07/25 05:25:11;;;;;;;4.15;3.38;;;;;;;21.91;77.69;95138.72;4997309;28;20222;-85
2021/07/25 05:27:42;;;;;;;4.68;3.60;;;;;;;21.98;77.30;95131.38;5014462;28;20234;-84
2021/07/25 05:30:11;;;;;;;5.47;3.85;;;;;;;22.02;76.99;95135.88;5014567;28;20285;-86
2021/07/25 05:32:38;;;;;;;5.93;3.65;;;;;;;22.02;77.24;95127.22;5014679;28;20250;-84
2021/07/25 05:35:08;;;;;;;8.40;3.83;;;;;;;21.91;76.85;95115.91;5021252;28;20199;-85
2021/07/25 05:37:40;;;;;;;4.93;3.50;;;;;;;21.75;77.73;95123.97;5018359;28;20225;-86
2021/07/25 05:40:24;;;;;;;4.43;3.97;;;;;;;21.65;78.46;95133.38;5022942;28;20206;-86
2021/07/25 05:43:20;;;;;;;3.67;3.30;;;;;;;21.83;78.34;95155.72;5028980;28;20218;-83
2021/07/25 05:46:25;;;;;;;3.63;3.25;;;;;;;22.00;77.94;95161.56;4930085;29;20229;-84
2021/07/25 05:48:51;;;;;;;5.07;3.72;;;;;;;22.11;77.46;95162.38;4917660;28;20210;-80
2021/07/25 05:51:18;;;;;;;4.75;3.60;;;;;;;22.18;76.95;95164.75;5016000;28;20230;-81
2021/07/25 05:53:47;;;;;;;7.05;3.75;;;;;;;22.23;77.04;95162.13;5030004;28;20236;-81
2021/07/25 05:56:13;;;;;;;5.45;3.47;;;;;;;22.32;76.18;95169.22;5031378;28;20225;-80
2021/07/25 05:58:40;;;;;;;4.03;3.47;;;;;;;22.36;76.39;95165.03;5031265;28;20293;-82
2021/07/25 06:01:06;;;;;;;3.97;3.47;;;;;;;22.37;76.28;95160.56;5031117;28;20669;-81
2021/07/25 06:03:33;;;;;;;4.53;3.55;;;;;;;22.42;75.97;95168.47;5030691;28;20210;-80
2021/07/25 06:06:00;;;;;;;4.50;3.35;;;;;;;22.50;75.33;95165.34;5030217;28;20226;-81
2021/07/25 06:08:26;;;;;;;8.38;3.90;;;;;;;22.55;74.79;95162.69;5031618;28;20194;-80
2021/07/25 06:10:54;;;;;;;5.07;3.53;;;;;;;22.57;74.64;95160.59;5030868;28;20260;-81
2021/07/25 06:13:21;;;;;;;5.35;3.67;;;;;;;22.57;73.99;95149.31;5031909;28;20702;-82
2021/07/25 06:15:48;;;;;;;4.93;3.50;;;;;;;22.47;74.12;95142.25;5031029;28;20285;-80
2021/07/25 06:18:15;;;;;;;6.72;4.05;;;;;;;22.19;76.19;95134.84;5030915;28;20259;-82
2021/07/25 06:20:41;;;;;;;3.88;3.40;;;;;;;22.12;77.65;95135.13;5030959;28;20202;-81
2021/07/25 06:23:09;;;;;;;5.20;3.50;;;;;;;22.29;76.74;95145.38;5031022;28;20236;-81
2021/07/25 06:25:36;;;;;;;4.55;3.78;;;;;;;22.45;75.84;95162.69;5030530;28;20325;-80
2021/07/25 06:28:05;;;;;;;3.60;3.22;;;;;;;22.51;76.29;95159.03;5030559;28;20665;-81
2021/07/25 06:30:33;;;;;;;6.50;3.50;;;;;;;22.59;75.26;95150.63;5030434;28;20202;-82
2021/07/25 06:33:02;;;;;;;7.60;4.57;;;;;;;22.68;75.05;95158.78;5030815;28;20221;-81
2021/07/25 06:35:30;;;;;;;8.63;4.63;;;;;;;22.60;76.04;95149.59;5030626;28;20205;-82
2021/07/25 06:37:58;;;;;;;4.93;4.30;;;;;;;22.49;76.40;95147.22;5031128;28;20577;-81
2021/07/25 06:40:26;;;;;;;5.32;4.28;;;;;;;22.47;76.06;95138.84;5029105;28;20218;-83
2021/07/25 06:42:52;;;;;;;4.57;3.97;;;;;;;22.38;76.32;95136.72;5027346;28;20217;-83
2021/07/25 06:45:21;;;;;;;5.22;4.03;;;;;;;22.43;77.05;95128.06;5027055;28;20481;-82
2021/07/25 06:47:51;;;;;;;5.15;4.30;;;;;;;22.35;77.77;95126.75;5029391;28;20229;-85
2021/07/25 06:50:18;;;;;;;9.70;4.18;;;;;;;22.23;78.50;95130.66;5028825;28;20407;-84
2021/07/25 06:52:45;;;;;;;4.78;3.78;;;;;;;22.22;78.14;95124.63;5028547;28;20717;-84
2021/07/25 06:55:12;;;;;;;5.85;3.83;;;;;;;22.36;77.29;95124.91;5028443;28;20205;-83
2021/07/25 06:57:39;;;;;;;4.65;4.07;;;;;;;22.61;75.93;95134.63;5029362;28;20205;-83
2021/07/25 07:00:13;;;;;;;4.53;3.42;;;;;;;22.86;74.39;95133.88;5030743;28;20198;-82
2021/07/25 07:02:48;;;;;;;6.43;3.92;;;;;;;23.07;73.08;95120.44;5017312;28;20305;-84
2021/07/25 07:05:15;;;;;;;4.85;4.30;;;;;;;23.16;72.66;95117.25;5009614;28;20272;-84
2021/07/25 07:07:41;;;;;;;4.85;3.65;;;;;;;23.24;71.57;95125.41;5010586;28;20195;-83
2021/07/25 07:10:09;;;;;;;7.10;3.90;;;;;;;23.40;71.30;95126.13;5010454;28;20237;-82
2021/07/25 07:12:35;;;;;;;4.97;3.67;;;;;;;23.32;71.40;95119.56;5023842;28;20222;-84
2021/07/25 07:15:03;;;;;;;4.20;3.38;;;;;;;23.28;71.77;95107.25;5027797;28;20202;-84
2021/07/25 07:17:30;;;;;;;7.57;4.00;;;;;;;23.23;71.75;95112.53;5031224;28;20198;-83
2021/07/25 07:19:58;;;;;;;5.80;5.30;;;;;;;23.31;71.23;95115.38;5031995;28;20205;-83
2021/07/25 07:22:28;;;;;;;6.63;6.00;;;;;;;23.45;71.20;95112.97;5024846;28;20250;-83
2021/07/25 07:24:56;;;;;;;6.38;4.75;;;;;;;23.60;70.77;95115.56;5010905;28;20209;-83
2021/07/25 07:27:22;;;;;;;4.55;4.10;;;;;;;23.48;68.50;95122.94;5009886;28;20628;-83
2021/07/25 07:29:50;;;;;;;4.50;3.85;;;;;;;23.31;69.27;95114.59;5010527;28;20199;-84
2021/07/25 07:32:16;;;;;;;6.03;3.60;;;;;;;23.18;70.29;95115.94;5009877;28;20203;-83
2021/07/25 07:34:43;;;;;;;6.07;4.25;;;;;;;23.33;70.21;95118.53;5010412;28;20760;-82
2021/07/25 07:37:11;;;;;;;4.82;4.07;;;;;;;23.41;71.36;95128.50;5010560;28;20689;-83
2021/07/25 07:39:38;;;;;;;5.10;4.00;;;;;;;23.67;69.68;95120.53;5010229;28;20428;-84
2021/07/25 07:42:05;;;;;;;6.18;4.20;;;;;;;23.79;67.20;95128.13;5017722;28;20453;-83
2021/07/25 07:44:32;;;;;;;5.45;3.85;;;;;;;23.62;64.55;95139.75;5009328;28;20285;-83
2021/07/25 07:46:59;;;;;;;5.00;3.55;;;;;;;23.57;66.17;95131.09;5023265;28;20222;-83
2021/07/25 07:49:25;;;;;;;7.00;4.07;;;;;;;23.60;67.20;95128.72;5027853;28;21053;-85
2021/07/25 07:51:52;;;;;;;5.30;4.07;;;;;;;23.67;67.04;95131.03;5015425;28;20582;-84
2021/07/25 07:54:20;;;;;;;8.18;4.07;;;;;;;23.84;66.87;95141.25;5014576;28;20856;-83
2021/07/25 07:56:47;;;;;;;7.80;5.07;;;;;;;23.87;66.78;95143.31;5029124;28;20293;-83
2021/07/25 07:59:13;;;;;;;4.30;3.90;;;;;;;24.07;66.46;95148.47;5022966;28;20593;-83
2021/07/25 08:01:40;;;;;;;4.90;4.07;;;;;;;24.16;64.56;95148.69;5021272;28;20195;-83
2021/07/25 08:04:06;;;;;;;6.63;4.00;;;;;;;24.31;65.07;95161.78;5018241;28;20734;-83
2021/07/25 08:06:41;;;;;;;7.18;4.13;;;;;;;24.37;64.71;95177.28;5028556;28;20225;-85
2021/07/25 08:09:07;;;;;;;6.22;4.03;;;;;;;24.26;64.63;95191.53;5014448;28;20651;-84
2021/07/25 08:11:35;;;;;;;4.63;4.05;;;;;;;24.24;64.10;95196.31;5025524;28;20198;-83
2021/07/25 08:14:01;;;;;;;5.75;3.70;;;;;;;24.20;64.14;95199.72;5020040;28;20233;-84
2021/07/25 08:16:28;;;;;;;7.53;3.90;;;;;;;24.15;64.30;95215.53;5029741;28;20202;-83
2021/07/25 08:18:55;;;;;;;10.40;4.40;;;;;;;24.14;64.69;95222.63;5024558;28;20195;-83
2021/07/25 08:21:21;;;;;;;5.30;3.97;;;;;;;24.09;64.74;95217.38;5033885;28;20198;-83
2021/07/25 08:23:48;;;;;;;8.45;3.92;;;;;;;24.08;65.09;95208.69;5031166;28;20638;-84
2021/07/25 08:26:14;;;;;;;6.90;3.92;;;;;;;24.09;66.45;95198.97;5013328;28;20226;-83
2021/07/25 08:28:42;;;;;;;5.07;4.05;;;;;;;24.15;66.24;95191.84;5032428;28;20206;-82
2021/07/25 08:31:08;;;;;;;5.22;3.83;;;;;;;24.01;69.06;95186.41;5032527;28;20594;-84
2021/07/25 08:33:35;;;;;;;5.22;3.90;;;;;;;24.09;68.01;95191.84;5032863;28;20725;-84
2021/07/25 08:36:02;;;;;;;5.57;3.95;;;;;;;24.06;69.12;95188.97;5024110;28;20206;-84
2021/07/25 08:38:29;;;;;;;3.85;3.40;;;;;;;24.11;68.38;95186.31;5035353;28;20213;-85
2021/07/25 08:41:10;;;;;;;4.88;3.95;;;;;;;24.10;69.59;95176.88;5036491;28;20248;-84
2021/07/25 08:43:39;;;;;;;11.30;10.13;;;;;;;24.12;69.04;95169.50;5034801;28;20210;-84
2021/07/25 08:46:16;;;;;;;4.93;4.18;;;;;;;24.20;67.64;95155.00;5033598;28;20226;-84
2021/07/25 08:48:47;;;;;;;7.80;7.00;;;;;;;24.30;67.80;95154.94;5035098;28;20206;-83
2021/07/25 08:51:17;;;;;;;5.43;4.93;;;;;;;24.45;66.70;95160.88;5033948;28;20209;-84
2021/07/25 08:53:59;;;;;;;9.85;6.03;;;;;;;24.60;66.46;95153.97;5017736;28;20872;-84
2021/07/25 08:56:30;;;;;;;4.47;3.95;;;;;;;24.64;65.94;95161.00;5016231;28;20210;-83
2021/07/25 08:58:59;;;;;;;5.63;4.07;;;;;;;24.70;66.10;95162.56;5020939;28;20659;-84
2021/07/25 09:01:35;;;;;;;3.95;3.55;;;;;;;24.72;65.86;95151.75;5026174;28;20202;-84
2021/07/25 09:04:03;;;;;;;4.30;3.90;;;;;;;24.56;64.61;95152.94;5032524;28;20351;-84
2021/07/25 09:06:41;;;;;;;6.00;3.63;;;;;;;24.57;64.95;95149.25;5033307;28;20218;-84
2021/07/25 09:09:09;;;;;;;3.80;3.50;;;;;;;24.55;64.88;95159.25;5014514;28;20763;-84
2021/07/25 09:11:37;;;;;;;4.85;3.67;;;;;;;24.41;64.44;95157.25;5013504;28;20783;-84
2021/07/25 09:14:04;;;;;;;5.07;3.50;;;;;;;24.33;65.39;95149.94;5019898;28;20919;-84
2021/07/25 09:16:35;;;;;;;5.18;3.92;;;;;;;24.33;65.80;95146.50;5033650;28;20625;-84
2021/07/25 09:19:02;;;;;;;11.80;10.57;;;;;;;24.48;65.97;95132.44;5034074;28;20204;-83
2021/07/25 09:21:42;;;;;;;17.05;15.52;;;;;;;24.57;66.23;95126.34;5031149;28;20206;-84
2021/07/25 09:24:20;;;;;;;8.00;6.55;;;;;;;24.64;65.91;95123.38;5033589;28;20241;-83
2021/07/25 09:26:56;;;;;;;4.78;4.20;;;;;;;24.40;65.63;95128.56;5033698;28;20238;-84
2021/07/25 09:29:24;;;;;;;9.38;5.13;;;;;;;24.42;66.01;95129.09;5032297;28;20193;-83
2021/07/25 09:32:10;;;;;;;5.70;4.30;;;;;;;24.41;66.44;95128.31;5032266;28;20202;-84
2021/07/25 09:34:38;;;;;;;6.70;4.57;;;;;;;24.42;66.69;95124.63;5036742;28;20689;-84
2021/07/25 09:37:12;;;;;;;7.15;4.60;;;;;;;24.39;67.00;95121.75;5033873;28;20218;-85
2021/07/25 09:39:41;;;;;;;4.85;4.00;;;;;;;24.35;66.26;95134.66;5031456;28;20205;-84
2021/07/25 09:42:09;;;;;;;4.53;4.10;;;;;;;24.17;67.19;95134.47;5032775;28;20206;-84
2021/07/25 09:44:50;;;;;;;4.90;4.10;;;;;;;24.24;66.72;95138.41;5029210;28;20202;-85
2021/07/25 09:47:32;;;;;;;5.55;3.78;;;;;;;24.28;66.94;95136.00;5032818;28;20253;-83
2021/07/25 09:49:59;;;;;;;4.53;4.13;;;;;;;24.39;66.76;95134.91;5032800;28;20206;-84
2021/07/25 09:52:30;;;;;;;6.13;4.07;;;;;;;24.42;66.91;95127.25;5030681;28;20234;-83
2021/07/25 09:54:57;;;;;;;6.50;4.15;;;;;;;24.41;65.81;95125.66;5032514;28;20210;-85
2021/07/25 09:57:25;;;;;;;7.60;4.65;;;;;;;24.32;66.05;95119.41;5033090;28;20233;-83
2021/07/25 09:59:51;;;;;;;4.93;4.13;;;;;;;24.30;65.63;95113.63;5033099;28;20206;-84
2021/07/25 10:02:38;;;;;;;4.85;3.78;;;;;;;24.08;67.08;95105.31;5021401;28;20202;-83
2021/07/25 10:05:09;;;;;;;3.80;3.40;;;;;;;24.09;64.87;95107.69;5011490;28;20253;-85
2021/07/25 10:07:36;;;;;;;3.85;3.42;;;;;;;24.18;65.83;95100.00;5028491;28;20513;-85
2021/07/25 10:10:04;;;;;;;5.78;3.90;;;;;;;24.25;65.35;95099.72;5033261;28;20202;-83
2021/07/25 10:12:33;;;;;;;4.50;3.85;;;;;;;24.28;65.03;95099.16;5029558;28;20226;-82
2021/07/25 10:15:03;;;;;;;6.88;3.67;;;;;;;24.41;64.76;95088.81;5025101;28;20225;-84
2021/07/25 10:17:33;;;;;;;3.40;3.10;;;;;;;24.32;62.12;95087.81;5031633;28;20281;-84
2021/07/25 10:20:02;;;;;;;3.40;3.10;;;;;;;24.36;62.19;95096.75;5031364;28;20210;-83
2021/07/25 10:22:30;;;;;;;3.40;3.08;;;;;;;24.46;60.99;95093.25;5031225;28;20214;-83
2021/07/25 10:24:59;;;;;;;3.75;3.20;;;;;;;24.50;61.52;95099.53;5031642;28;20228;-85
2021/07/25 10:27:28;;;;;;;3.80;3.00;;;;;;;24.46;60.84;95090.59;5022390;28;20238;-88
2021/07/25 10:29:58;;;;;;;2.95;2.65;;;;;;;24.44;59.71;95087.47;5008463;28;20650;-88
2021/07/25 10:32:29;;;;;;;2.92;2.72;;;;;;;24.48;58.99;95077.97;5008207;28;20659;-88
2021/07/25 10:34:56;;;;;;;2.90;2.70;;;;;;;24.64;59.06;95082.03;5008419;28;20206;-86
2021/07/25 10:37:25;;;;;;;3.50;2.85;;;;;;;24.94;60.16;95069.66;5009428;28;20195;-85
2021/07/25 10:39:54;;;;;;;3.80;2.97;;;;;;;25.02;59.20;95075.13;5009044;28;20199;-86
2021/07/25 10:42:23;;;;;;;3.90;2.80;;;;;;;25.01;58.54;95064.88;5008161;28;20290;-86
2021/07/25 10:44:50;;;;;;;3.03;2.75;;;;;;;25.09;57.35;95064.25;5008359;28;20264;-87
2021/07/25 10:47:30;;;;;;;3.33;2.78;;;;;;;25.18;55.10;95072.34;5026947;28;20265;-87
2021/07/25 10:50:08;;;;;;;4.32;2.97;;;;;;;25.47;55.94;95065.13;5028328;28;20201;-87
2021/07/25 10:53:03;;;;;;;2.95;2.58;;;;;;;25.53;54.60;95056.09;5029498;28;20233;-89
2021/07/25 10:55:51;;;;;;;2.63;2.30;;;;;;;25.48;54.88;95056.94;4987380;28;20666;-88
2021/07/25 10:58:19;;;;;;;3.03;2.47;;;;;;;25.39;54.89;95063.91;4995181;28;20194;-89
2021/07/25 11:00:49;;;;;;;2.80;2.60;;;;;;;25.27;54.14;95065.38;5011827;28;20559;-86
2021/07/25 11:03:44;;;;;;;2.70;2.50;;;;;;;25.08;55.76;95065.31;5013183;28;20218;-86
2021/07/25 11:06:23;;;;;;;4.05;2.40;;;;;;;24.87;56.40;95077.09;5009827;28;20237;-87
2021/07/25 11:08:51;;;;;;;2.30;2.20;;;;;;;24.83;55.91;95076.84;5009389;28;20709;-88
2021/07/25 11:12:00;;;;;;;3.40;3.10;;;;;;;24.86;56.22;95083.41;5007851;28;20820;-88
2021/07/25 11:15:09;;;;;;;3.20;2.83;;;;;;;24.89;55.93;95073.13;5016549;28;20252;-88
2021/07/25 11:17:53;;;;;;;2.90;2.60;;;;;;;25.02;55.74;95067.22;5027900;28;20288;-88
2021/07/25 11:20:57;;;;;;;3.78;2.90;;;;;;;25.01;55.51;95063.03;5026730;28;20240;-88
2021/07/25 11:23:36;;;;;;;3.30;3.00;;;;;;;25.01;56.77;95060.41;4996312;28;20701;-89
2021/07/25 11:26:48;;;;;;;4.95;3.30;;;;;;;25.06;56.35;95049.78;5013550;28;20633;-89
2021/07/25 11:29:18;;;;;;;3.33;3.05;;;;;;;25.25;57.67;95052.47;5021881;28;20199;-87
2021/07/25 11:32:24;;;;;;;3.22;2.92;;;;;;;25.24;54.56;95048.25;5014208;28;20214;-87
2021/07/25 11:35:02;;;;;;;3.22;2.92;;;;;;;25.21;55.69;95045.44;5024529;28;20579;-87
2021/07/25 11:37:39;;;;;;;3.15;2.85;;;;;;;25.20;56.36;95057.81;5008945;28;20636;-88
2021/07/25 11:40:07;;;;;;;3.10;2.80;;;;;;;25.06;55.87;95057.69;5007988;28;20278;-88
2021/07/25 11:42:36;;;;;;;3.78;3.00;;;;;;;25.16;56.36;95063.94;5007340;28;20305;-89
2021/07/25 12:01:10;;;;;;;4.63;3.28;;;;;;;25.20;55.49;95064.94;5015989;28;20206;-89
2021/07/25 12:03:37;;;;;;;3.33;3.03;;;;;;;25.17;55.77;95062.84;5019670;28;20225;-88
2021/07/25 12:06:10;;;;;;;3.47;3.17;;;;;;;25.10;55.34;95053.44;5049569;28;20236;-88
2021/07/25 12:08:37;;;;;;;3.80;3.50;;;;;;;24.99;55.27;95053.84;5050850;28;20704;-88
2021/07/25 12:11:04;;;;;;;4.53;3.28;;;;;;;24.81;55.63;95062.41;5050641;28;20296;-87
2021/07/25 12:13:30;;;;;;;5.45;3.45;;;;;;;24.88;56.80;95070.75;5050662;28;20213;-88
2021/07/25 12:16:04;;;;;;;3.85;3.55;;;;;;;24.90;55.47;95073.91;5050326;28;20292;-89
2021/07/25 12:18:34;;;;;;;3.83;3.53;;;;;;;25.01;56.47;95065.66;5050179;28;20220;-87
2021/07/25 12:21:00;;;;;;;3.63;3.33;;;;;;;25.03;56.16;95060.88;5050572;28;20284;-87
2021/07/25 12:23:37;;;;;;;3.90;3.13;;;;;;;25.06;56.34;95060.31;5050684;28;20244;-88
2021/07/25 12:26:03;;;;;;;4.55;3.38;;;;;;;25.00;55.28;95050.91;5050172;28;20201;-87
2021/07/25 12:28:30;;;;;;;3.30;3.00;;;;;;;25.00;54.99;95047.50;5050467;28;20225;-88
2021/07/25 12:30:58;;;;;;;3.63;3.33;;;;;;;25.00;55.68;95055.41;5050080;28;20624;-88
2021/07/25 12:33:29;;;;;;;5.78;3.30;;;;;;;25.00;57.19;95065.94;5050650;28;20237;-89
2021/07/25 12:36:09;;;;;;;3.88;3.50;;;;;;;25.06;56.28;95064.81;5057687;28;20220;-88
2021/07/25 12:38:35;;;;;;;3.85;3.47;;;;;;;25.18;57.60;95065.22;5070262;28;20229;-87